National Weather Service Raw Text Product

Displaying AFOS PIL: TAFFOD Received: 2018-01-03 01:01 UTC


399 
FTUS43 KDMX 030101 AAA
TAFFOD
TAF AMD
KFOD 030101Z 0301/0324 22015G21KT P6SM FEW050 SCT100 BKN200
      TEMPO 0301/0302 1SM -SN SCT007 BKN015
     FM030200 24012G18KT P6SM SCT035 BKN060
     FM030500 29011KT P6SM BKN035
     FM030700 32016G24KT P6SM BKN025
     FM030900 34018G27KT P6SM SCT035=